createdAt,value
2022-09-16T00:00:52.459Z,0.50
2022-09-16T00:03:20.155Z,0.60
2022-09-16T00:05:50.760Z,0.50
2022-09-16T00:08:19.652Z,0.40
2022-09-16T00:10:48.783Z,0.50
2022-09-16T00:13:17.032Z,0.98
2022-09-16T00:15:46.089Z,0.50
2022-09-16T00:18:15.021Z,0.47
2022-09-16T00:20:47.721Z,0.43
2022-09-16T00:23:15.737Z,0.40
2022-09-16T00:25:43.151Z,0.40
2022-09-16T00:28:10.728Z,0.40
2022-09-16T00:30:38.044Z,0.55
2022-09-16T00:33:05.487Z,0.40
2022-09-16T00:35:32.873Z,0.47
2022-09-16T00:38:00.269Z,0.50
2022-09-16T00:40:27.760Z,0.40
2022-09-16T00:42:55.172Z,0.43
2022-09-16T00:45:25.190Z,0.30
2022-09-16T00:48:07.344Z,0.32
2022-09-16T00:50:48.344Z,0.50
2022-09-16T00:53:23.388Z,0.35
2022-09-16T00:55:53.461Z,0.20
2022-09-16T00:58:42.676Z,0.80
2022-09-16T01:01:10.374Z,0.32
2022-09-16T01:03:47.165Z,0.38
2022-09-16T01:06:17.037Z,0.30
2022-09-16T01:08:45.380Z,0.28
2022-09-16T01:11:12.668Z,0.20
2022-09-16T01:13:41.489Z,0.30
2022-09-16T01:16:11.641Z,0.20
2022-09-16T01:18:48.082Z,0.35
2022-09-16T01:21:42.407Z,0.30
2022-09-16T01:24:17.690Z,0.22
2022-09-16T01:26:59.783Z,0.52
2022-09-16T01:29:59.570Z,0.47
2022-09-16T01:33:04.946Z,0.20
2022-09-16T01:36:03.080Z,0.30
2022-09-16T01:38:42.676Z,0.38
2022-09-16T01:41:35.571Z,0.40
2022-09-16T01:44:16.496Z,0.30
2022-09-16T01:46:55.157Z,0.38
2022-09-16T01:49:49.671Z,0.30
2022-09-16T01:52:35.046Z,0.20
2022-09-16T01:55:07.453Z,0.30
2022-09-16T01:57:43.159Z,0.25
2022-09-16T02:00:14.494Z,0.30
2022-09-16T02:02:54.254Z,0.30
2022-09-16T02:05:34.657Z,0.40
2022-09-16T02:08:12.017Z,0.22
2022-09-16T02:10:47.257Z,0.30
2022-09-16T02:13:25.859Z,0.30
2022-09-16T02:15:57.450Z,0.25
2022-09-16T02:18:29.492Z,0.20
2022-09-16T02:20:58.243Z,0.20
2022-09-16T02:23:33.395Z,0.20
2022-09-16T02:26:02.995Z,0.20
2022-09-16T02:28:33.641Z,0.20
2022-09-16T02:31:05.960Z,0.30
2022-09-16T02:34:05.897Z,0.35
2022-09-16T02:36:34.969Z,0.20
2022-09-16T02:39:09.636Z,0.20
2022-09-16T02:44:05.698Z,0.30
2022-09-16T02:46:48.546Z,0.20
2022-09-16T02:49:25.238Z,0.32
2022-09-16T02:52:09.627Z,0.30
2022-09-16T02:55:00.028Z,0.15
2022-09-16T02:57:27.620Z,0.30
2022-09-16T02:59:54.948Z,0.75
2022-09-16T03:02:22.384Z,0.20
2022-09-16T03:04:49.677Z,0.28
2022-09-16T03:07:17.652Z,0.20
2022-09-16T03:09:47.804Z,0.20
2022-09-16T03:12:37.099Z,0.30
2022-09-16T03:15:58.925Z,0.30
2022-09-16T03:19:03.667Z,0.20
2022-09-16T03:22:00.259Z,0.30
2022-09-16T03:25:00.033Z,0.30
2022-09-16T03:27:34.399Z,0.28
2022-09-16T03:30:07.836Z,0.30
2022-09-16T03:32:43.582Z,0.38
2022-09-16T03:35:25.839Z,0.20
2022-09-16T03:37:56.109Z,0.20
2022-09-16T03:40:24.279Z,0.30
2022-09-16T03:42:51.749Z,0.20
2022-09-16T03:45:22.370Z,0.30
2022-09-16T03:47:52.216Z,0.20
2022-09-16T03:50:20.628Z,0.32
2022-09-16T03:52:48.129Z,0.30
2022-09-16T03:55:17.071Z,0.30
2022-09-16T03:57:44.533Z,0.40
2022-09-16T04:00:12.262Z,0.30
2022-09-16T04:02:39.640Z,0.32
2022-09-16T04:05:08.374Z,0.30
2022-09-16T04:07:36.049Z,0.25
2022-09-16T04:10:04.724Z,0.43
2022-09-16T04:12:32.213Z,0.30
2022-09-16T04:15:00.905Z,0.30
2022-09-16T04:17:31.994Z,0.68
2022-09-16T04:19:59.379Z,0.50
2022-09-16T04:22:30.561Z,0.25
2022-09-16T04:24:58.466Z,0.30
2022-09-16T04:27:25.936Z,0.40
2022-09-16T04:29:53.270Z,0.68
2022-09-16T04:32:20.531Z,1.05
2022-09-16T04:34:47.853Z,0.35
2022-09-16T04:37:15.407Z,0.20
2022-09-16T04:39:42.604Z,0.30
2022-09-16T04:42:12.466Z,0.35
2022-09-16T04:44:39.973Z,0.40
2022-09-16T04:47:07.268Z,0.40
2022-09-16T04:49:34.832Z,0.47
2022-09-16T04:52:02.301Z,0.40
2022-09-16T04:54:29.692Z,0.38
2022-09-16T04:56:57.785Z,0.20
2022-09-16T04:59:25.058Z,0.40
2022-09-16T05:01:52.566Z,0.40
2022-09-16T05:04:19.880Z,0.30
2022-09-16T05:06:47.195Z,0.20
2022-09-16T05:09:14.785Z,0.38
2022-09-16T05:11:42.378Z,0.30
2022-09-16T05:14:14.790Z,0.38
2022-09-16T05:16:42.265Z,0.30
2022-09-16T05:19:12.103Z,0.80
2022-09-16T05:21:40.266Z,0.30
2022-09-16T05:24:10.044Z,0.32
2022-09-16T05:26:39.883Z,0.20
2022-09-16T05:29:10.970Z,0.40
2022-09-16T05:31:40.686Z,0.30
2022-09-16T05:34:14.036Z,0.25
2022-09-16T05:36:43.953Z,0.40
2022-09-16T05:39:22.788Z,0.30
2022-09-16T05:41:53.824Z,0.30
2022-09-16T05:44:21.057Z,0.30
2022-09-16T05:46:48.260Z,0.30
2022-09-16T05:49:20.771Z,0.38
2022-09-16T05:51:49.304Z,0.30
2022-09-16T05:54:18.733Z,0.30
2022-09-16T05:56:47.455Z,0.30
2022-09-16T05:59:16.176Z,0.40
2022-09-16T06:01:44.124Z,0.30
2022-09-16T06:04:13.264Z,0.40
2022-09-16T06:06:43.207Z,0.30
2022-09-16T06:09:15.417Z,0.38
2022-09-16T06:11:44.861Z,0.50
2022-09-16T06:14:13.343Z,0.60
2022-09-16T06:16:40.940Z,0.70
2022-09-16T06:19:13.722Z,0.30
2022-09-16T06:21:42.156Z,0.50
2022-09-16T06:24:10.174Z,0.50
2022-09-16T06:26:39.698Z,0.30
2022-09-16T06:29:07.682Z,0.40
2022-09-16T06:31:36.331Z,0.40
2022-09-16T06:34:05.523Z,0.50
2022-09-16T06:36:35.451Z,1.05
2022-09-16T06:39:04.239Z,0.50
2022-09-16T06:41:33.714Z,0.40
2022-09-16T06:44:01.164Z,0.60
2022-09-16T06:46:29.670Z,0.50
2022-09-16T06:49:00.414Z,0.30
2022-09-16T06:54:02.227Z,0.55
2022-09-16T06:56:29.625Z,0.98
2022-09-16T06:58:57.485Z,0.50
2022-09-16T07:01:28.266Z,0.50
2022-09-16T07:03:57.726Z,0.50
2022-09-16T07:06:49.585Z,0.50
2022-09-16T07:09:15.354Z,0.70
2022-09-16T07:11:42.544Z,0.95
2022-09-16T07:14:09.831Z,0.80
2022-09-16T07:16:37.601Z,0.57
2022-09-16T07:19:05.460Z,0.52
2022-09-16T07:21:32.731Z,0.85
2022-09-16T07:24:02.652Z,0.52
2022-09-16T07:26:35.847Z,0.93
2022-09-16T07:29:05.108Z,0.60
2022-09-16T07:31:35.440Z,0.45
2022-09-16T07:34:04.921Z,0.70
2022-09-16T07:36:38.727Z,0.60
2022-09-16T07:39:07.130Z,0.70
2022-09-16T07:41:37.420Z,0.52
2022-09-16T07:44:07.507Z,0.57
2022-09-16T07:46:36.665Z,0.60
2022-09-16T07:49:11.718Z,0.50
2022-09-16T07:51:39.059Z,0.60
2022-09-16T07:54:09.266Z,0.50
2022-09-16T07:56:38.496Z,0.70
2022-09-16T07:59:07.513Z,0.60
2022-09-16T08:01:36.333Z,0.73
2022-09-16T08:04:06.204Z,0.63
2022-09-16T08:06:37.258Z,0.50
2022-09-16T08:09:10.505Z,0.75
2022-09-16T08:11:51.851Z,0.68
2022-09-16T08:14:19.143Z,0.60
2022-09-16T08:16:46.930Z,0.60
2022-09-16T08:19:14.399Z,0.73
2022-09-16T08:21:41.576Z,0.95
2022-09-16T08:24:10.367Z,0.40
2022-09-16T08:26:37.674Z,0.40
2022-09-16T08:29:08.965Z,0.35
2022-09-16T08:31:37.339Z,0.45
2022-09-16T08:34:04.940Z,0.40
2022-09-16T08:36:33.677Z,0.40
2022-09-16T08:39:01.721Z,0.20
2022-09-16T08:41:50.317Z,0.20
2022-09-16T08:44:20.295Z,0.30
2022-09-16T08:46:53.379Z,0.30
2022-09-16T08:49:29.861Z,0.28
2022-09-16T08:51:59.929Z,0.30
2022-09-16T08:54:32.105Z,0.57
2022-09-16T08:57:03.426Z,0.30
2022-09-16T08:59:35.821Z,0.10
2022-09-16T09:02:29.317Z,0.30
2022-09-16T09:04:56.986Z,0.20
2022-09-16T09:07:41.132Z,0.30
2022-09-16T09:10:40.697Z,0.23
2022-09-16T09:13:27.845Z,0.10
2022-09-16T09:16:14.895Z,0.20
2022-09-16T09:19:01.793Z,0.40
2022-09-16T09:21:39.323Z,0.40
2022-09-16T09:24:18.478Z,0.30
2022-09-16T09:26:50.650Z,0.40
2022-09-16T09:29:34.078Z,0.47
2022-09-16T09:32:35.085Z,0.28
2022-09-16T09:35:22.742Z,0.30
2022-09-16T09:37:53.147Z,0.30
2022-09-16T09:40:45.988Z,0.30
2022-09-16T09:43:29.094Z,0.40
2022-09-16T09:45:59.471Z,0.50
2022-09-16T09:48:45.101Z,0.40
2022-09-16T09:51:25.772Z,0.30
2022-09-16T09:53:57.662Z,0.38
2022-09-16T09:56:30.400Z,0.40
2022-09-16T09:59:25.384Z,0.30
2022-09-16T10:01:58.197Z,0.40
2022-09-16T10:04:25.744Z,0.30
2022-09-16T10:06:55.821Z,0.32
2022-09-16T10:09:23.997Z,0.30
2022-09-16T10:11:57.902Z,0.40
2022-09-16T10:14:32.444Z,0.30
2022-09-16T10:17:15.681Z,0.32
2022-09-16T10:20:02.118Z,0.25
2022-09-16T10:22:32.087Z,0.40
2022-09-16T10:25:09.513Z,0.47
2022-09-16T10:27:38.242Z,0.30
2022-09-16T10:33:04.794Z,0.40
2022-09-16T10:35:38.199Z,0.30
2022-09-16T10:38:20.422Z,0.55
2022-09-16T10:41:15.178Z,0.40
2022-09-16T10:43:50.285Z,0.28
2022-09-16T10:46:21.376Z,0.30
2022-09-16T10:48:50.638Z,0.28
2022-09-16T10:51:29.284Z,0.28
2022-09-16T10:53:59.530Z,0.20
2022-09-16T10:56:33.843Z,0.10
2022-09-16T10:59:11.212Z,0.28
2022-09-16T11:02:04.185Z,0.13
2022-09-16T11:04:34.598Z,0.10
2022-09-16T11:07:16.834Z,0.10
2022-09-16T11:10:02.177Z,0.20
2022-09-16T11:13:06.483Z,0.20
2022-09-16T11:15:36.741Z,0.10
2022-09-16T11:18:22.793Z,0.10
2022-09-16T11:21:15.563Z,0.20
2022-09-16T11:23:55.441Z,0.10
2022-09-16T11:26:49.984Z,0.10
2022-09-16T11:29:29.200Z,0.10
2022-09-16T11:32:08.559Z,0.10
2022-09-16T11:34:45.231Z,0.00
2022-09-16T11:37:18.021Z,0.10
2022-09-16T11:40:23.918Z,0.10
2022-09-16T11:43:23.281Z,0.10
2022-09-16T11:46:14.687Z,0.10
2022-09-16T11:49:07.885Z,0.10
2022-09-16T11:51:53.602Z,0.10
2022-09-16T11:54:40.852Z,0.10
2022-09-16T11:57:15.173Z,0.10
2022-09-16T11:59:55.235Z,0.22
2022-09-16T12:02:48.132Z,0.10
2022-09-16T12:05:15.434Z,0.10
2022-09-16T12:07:48.687Z,0.13
2022-09-16T12:10:45.687Z,0.10
2022-09-16T12:13:27.865Z,0.10
2022-09-16T12:15:59.481Z,0.00
2022-09-16T12:18:55.854Z,0.10
2022-09-16T12:21:28.980Z,0.10
2022-09-16T12:24:09.869Z,0.10
2022-09-16T12:26:42.335Z,0.10
2022-09-16T12:29:12.777Z,0.13
2022-09-16T12:32:05.118Z,0.10
2022-09-16T12:34:44.492Z,0.00
2022-09-16T12:37:39.281Z,0.20
2022-09-16T12:40:14.962Z,0.10
2022-09-16T12:42:51.196Z,0.30
2022-09-16T12:45:43.268Z,0.20
2022-09-16T12:48:16.772Z,0.10
2022-09-16T12:50:54.767Z,0.10
2022-09-16T12:53:51.901Z,0.10
2022-09-16T12:56:35.376Z,0.10
2022-09-16T12:59:20.013Z,0.10
2022-09-16T13:01:50.977Z,0.20
2022-09-16T13:04:29.743Z,0.20
2022-09-16T13:07:02.140Z,0.20
2022-09-16T13:09:39.365Z,0.10
2022-09-16T13:12:44.392Z,0.10
2022-09-16T13:17:53.269Z,0.28
2022-09-16T13:20:34.145Z,0.60
2022-09-16T13:23:23.128Z,0.22
2022-09-16T13:26:02.020Z,1.23
2022-09-16T13:28:44.426Z,0.50
2022-09-16T13:31:12.565Z,0.20
2022-09-16T13:34:04.581Z,0.35
2022-09-16T13:36:34.283Z,0.20
2022-09-16T13:39:07.268Z,0.20
2022-09-16T13:41:38.951Z,0.10
2022-09-16T13:44:28.339Z,0.20
2022-09-16T13:46:55.541Z,0.10
2022-09-16T13:49:28.016Z,0.10
2022-09-16T13:51:55.291Z,0.10
2022-09-16T13:54:26.015Z,0.10
2022-09-16T13:56:59.419Z,0.17
2022-09-16T13:59:50.004Z,0.30
2022-09-16T14:02:33.587Z,0.30
2022-09-16T14:05:19.356Z,0.30
2022-09-16T14:08:12.080Z,0.30
2022-09-16T14:10:48.386Z,0.30
2022-09-16T14:13:23.647Z,0.20
2022-09-16T14:15:54.254Z,0.20
2022-09-16T14:18:25.528Z,0.15
2022-09-16T14:21:04.897Z,0.10
2022-09-16T14:23:33.759Z,0.10
2022-09-16T14:26:18.143Z,0.10
2022-09-16T14:28:45.488Z,0.10
2022-09-16T14:31:27.162Z,0.10
2022-09-16T14:33:58.956Z,0.17
2022-09-16T14:36:32.891Z,0.05
2022-09-16T14:39:09.569Z,0.20
2022-09-16T14:41:58.447Z,0.10
2022-09-16T14:44:39.944Z,0.08
2022-09-16T14:47:39.702Z,0.10
2022-09-16T14:50:20.992Z,0.10
2022-09-16T14:53:03.168Z,0.05
2022-09-16T14:55:36.133Z,0.10
2022-09-16T14:58:03.544Z,0.20
2022-09-16T15:00:55.286Z,0.20
2022-09-16T15:03:22.992Z,0.10
2022-09-16T15:05:53.402Z,0.03
2022-09-16T15:08:29.361Z,0.13
2022-09-16T15:11:08.139Z,0.10
2022-09-16T15:13:37.651Z,0.10
2022-09-16T15:16:08.235Z,0.15
2022-09-16T15:18:38.742Z,0.10
2022-09-16T15:21:16.736Z,0.10
2022-09-16T15:23:48.583Z,0.10
2022-09-16T15:26:25.151Z,0.10
2022-09-16T15:31:44.659Z,0.10
2022-09-16T15:34:23.939Z,0.05
2022-09-16T15:37:00.252Z,0.03
2022-09-16T15:39:34.570Z,0.10
2022-09-16T15:42:23.997Z,0.10
2022-09-16T15:44:58.007Z,0.10
2022-09-16T15:47:29.559Z,0.10
2022-09-16T15:50:12.967Z,0.10
2022-09-16T15:52:52.701Z,0.10
2022-09-16T15:55:53.984Z,0.10
2022-09-16T15:58:33.677Z,0.20
2022-09-16T16:01:26.938Z,0.20
2022-09-16T16:03:57.389Z,0.10
2022-09-16T16:06:52.434Z,0.10
2022-09-16T16:09:29.938Z,0.30
2022-09-16T16:12:02.737Z,0.10
2022-09-16T16:14:32.601Z,0.20
2022-09-16T16:17:15.577Z,0.10
2022-09-16T16:19:44.151Z,0.10
2022-09-16T16:22:12.287Z,0.10
2022-09-16T16:24:40.330Z,0.10
2022-09-16T16:27:08.713Z,0.20
2022-09-16T16:29:36.251Z,0.20
2022-09-16T16:32:15.273Z,0.10
2022-09-16T16:34:47.803Z,0.20
2022-09-16T16:37:40.331Z,0.03
2022-09-16T16:40:06.040Z,0.10
2022-09-16T16:42:34.143Z,0.10
2022-09-16T16:45:01.544Z,0.20
2022-09-16T16:47:28.997Z,0.10
2022-09-16T16:49:56.312Z,0.20
2022-09-16T16:52:23.616Z,0.10
2022-09-16T16:54:51.894Z,0.00
2022-09-16T16:57:19.158Z,0.17
2022-09-16T16:59:46.419Z,0.20
2022-09-16T17:02:15.195Z,0.10
2022-09-16T17:04:42.496Z,0.10
2022-09-16T17:07:27.763Z,0.10
2022-09-16T17:09:57.618Z,0.20
2022-09-16T17:12:25.675Z,0.10
2022-09-16T17:14:52.998Z,0.10
2022-09-16T17:17:20.370Z,0.40
2022-09-16T17:19:47.637Z,0.10
2022-09-16T17:22:15.166Z,0.20
2022-09-16T17:24:42.479Z,0.10
2022-09-16T17:27:09.790Z,0.10
2022-09-16T17:29:37.060Z,0.00
2022-09-16T17:32:04.441Z,0.20
2022-09-16T17:34:32.020Z,0.00
2022-09-16T17:36:59.456Z,0.10
2022-09-16T17:39:26.872Z,0.10
2022-09-16T17:41:56.935Z,0.17
2022-09-16T17:44:24.883Z,0.10
2022-09-16T17:46:52.420Z,0.17
2022-09-16T17:49:22.310Z,0.20
2022-09-16T17:51:53.884Z,0.20
2022-09-16T17:54:21.840Z,0.20
2022-09-16T17:56:49.691Z,0.40
2022-09-16T17:59:18.803Z,0.30
2022-09-16T18:01:46.616Z,0.20
2022-09-16T18:04:14.097Z,0.13
2022-09-16T18:06:44.249Z,0.20
2022-09-16T18:09:12.136Z,0.10
2022-09-16T18:11:40.248Z,0.20
2022-09-16T18:14:10.826Z,0.10
2022-09-16T18:16:38.424Z,0.15
2022-09-16T18:19:06.582Z,0.20
2022-09-16T18:21:34.395Z,0.20
2022-09-16T18:24:03.447Z,0.20
2022-09-16T18:26:31.972Z,0.20
2022-09-16T18:29:10.929Z,0.22
2022-09-16T18:31:41.408Z,0.30
2022-09-16T18:34:09.056Z,0.20
2022-09-16T18:36:37.856Z,0.10
2022-09-16T18:39:06.421Z,0.20
2022-09-16T18:41:39.196Z,0.20
2022-09-16T18:44:12.673Z,0.20
2022-09-16T18:46:40.476Z,0.20
2022-09-16T18:49:09.916Z,0.20
2022-09-16T18:51:49.843Z,0.20
2022-09-16T18:54:28.855Z,0.20
2022-09-16T18:56:59.121Z,0.25
2022-09-16T18:59:31.304Z,0.35
2022-09-16T19:02:01.222Z,0.63
2022-09-16T19:04:30.674Z,0.20
2022-09-16T19:07:06.106Z,0.30
2022-09-16T19:09:36.268Z,0.20
2022-09-16T19:12:04.287Z,0.20
2022-09-16T19:14:31.522Z,0.30
2022-09-16T19:16:59.373Z,0.35
2022-09-16T19:19:26.623Z,0.30
2022-09-16T19:21:53.918Z,0.60
2022-09-16T19:24:23.162Z,0.38
2022-09-16T19:26:53.175Z,0.30
2022-09-16T19:29:21.383Z,0.40
2022-09-16T19:31:54.754Z,0.50
2022-09-16T19:34:22.558Z,0.50
2022-09-16T19:36:50.329Z,0.65
2022-09-16T19:39:17.949Z,0.60
2022-09-16T19:41:45.303Z,0.50
2022-09-16T19:44:17.731Z,0.50
2022-09-16T19:46:47.145Z,0.28
2022-09-16T19:49:16.945Z,0.30
2022-09-16T19:51:44.369Z,0.35
2022-09-16T19:54:12.237Z,0.65
2022-09-16T19:56:39.936Z,0.25
2022-09-16T19:59:07.455Z,0.40
2022-09-16T20:01:36.302Z,0.30
2022-09-16T20:04:06.117Z,0.40
2022-09-16T20:06:36.586Z,0.32
2022-09-16T20:09:06.300Z,0.30
2022-09-16T20:11:38.981Z,0.40
2022-09-16T20:14:08.537Z,0.30
2022-09-16T20:16:37.932Z,0.40
2022-09-16T20:19:08.252Z,0.30
2022-09-16T20:21:36.423Z,0.40
2022-09-16T20:24:06.377Z,0.40
2022-09-16T20:26:34.357Z,0.32
2022-09-16T20:29:01.925Z,0.68
2022-09-16T20:31:32.865Z,0.40
2022-09-16T20:34:00.406Z,0.50
2022-09-16T20:36:32.486Z,0.30
2022-09-16T20:39:00.413Z,0.30
2022-09-16T20:41:30.371Z,0.55
2022-09-16T20:43:58.174Z,0.30
2022-09-16T20:46:29.589Z,0.47
2022-09-16T20:48:58.728Z,0.50
2022-09-16T20:51:33.736Z,0.32
2022-09-16T20:54:08.339Z,0.50
2022-09-16T20:56:38.976Z,0.50
2022-09-16T20:59:11.941Z,0.38
2022-09-16T21:01:40.739Z,0.50
2022-09-16T21:04:14.777Z,0.40
2022-09-16T21:06:42.737Z,0.40
2022-09-16T21:09:12.897Z,0.40
2022-09-16T21:11:44.824Z,0.50
2022-09-16T21:14:15.371Z,0.52
2022-09-16T21:16:43.708Z,0.40
2022-09-16T21:19:12.884Z,0.60
2022-09-16T21:21:43.825Z,0.50
2022-09-16T21:24:11.322Z,0.45
2022-09-16T21:26:40.596Z,0.57
2022-09-16T21:29:17.651Z,0.52
2022-09-16T21:31:45.075Z,0.50
2022-09-16T21:34:20.324Z,1.88
2022-09-16T21:36:49.040Z,0.50
2022-09-16T21:39:17.695Z,0.50
2022-09-16T21:41:46.727Z,0.57
2022-09-16T21:44:14.800Z,0.60
2022-09-16T21:46:45.266Z,0.60
2022-09-16T21:49:29.103Z,0.60
2022-09-16T21:51:58.635Z,0.50
2022-09-16T21:54:26.675Z,0.55
2022-09-16T21:56:54.251Z,0.30
2022-09-16T21:59:21.906Z,0.40
2022-09-16T22:01:51.106Z,0.32
2022-09-16T22:04:21.630Z,0.40
2022-09-16T22:06:50.657Z,0.32
2022-09-16T22:09:17.948Z,0.70
2022-09-16T22:11:45.213Z,0.43
2022-09-16T22:14:12.577Z,0.40
2022-09-16T22:16:40.446Z,0.50
2022-09-16T22:19:11.283Z,0.30
2022-09-16T22:21:41.854Z,0.52
2022-09-16T22:24:10.010Z,0.50
2022-09-16T22:26:37.899Z,0.40
2022-09-16T22:29:06.397Z,0.40
2022-09-16T22:31:36.431Z,0.50
2022-09-16T22:34:04.159Z,0.40
2022-09-16T22:36:33.830Z,0.30
2022-09-16T22:39:21.402Z,0.30
2022-09-16T22:41:48.969Z,0.50
2022-09-16T22:44:16.205Z,0.40
2022-09-16T22:46:48.271Z,0.60
2022-09-16T22:49:15.985Z,0.50
2022-09-16T22:51:43.646Z,0.50
2022-09-16T22:54:12.739Z,0.50
2022-09-16T22:56:40.025Z,0.60
2022-09-16T22:59:08.414Z,0.50
2022-09-16T23:01:38.740Z,0.50
2022-09-16T23:04:08.010Z,0.50
2022-09-16T23:06:36.905Z,0.30
2022-09-16T23:09:05.679Z,0.30
2022-09-16T23:11:34.245Z,0.38
2022-09-16T23:14:02.015Z,0.47
2022-09-16T23:16:31.818Z,0.40
2022-09-16T23:19:01.483Z,0.30
2022-09-16T23:21:29.407Z,0.25
2022-09-16T23:24:02.478Z,0.50
2022-09-16T23:26:35.685Z,0.30
2022-09-16T23:29:06.160Z,0.30
2022-09-16T23:31:35.769Z,0.30
2022-09-16T23:34:07.856Z,0.30
2022-09-16T23:36:37.787Z,0.50
2022-09-16T23:39:09.444Z,0.30
2022-09-16T23:41:38.589Z,0.40
2022-09-16T23:44:06.434Z,0.35
2022-09-16T23:46:34.479Z,0.20
2022-09-16T23:49:02.103Z,0.30
2022-09-16T23:51:31.775Z,0.43
2022-09-16T23:54:00.253Z,0.30
2022-09-16T23:56:27.762Z,0.30
2022-09-16T23:58:58.846Z,0.30
